Time;durP1;ratioP1;P1;durP2;ratioP2;P2;SDS_P1;SDS_P2;PMS_P1;PMS_P2;Temp;Humidity;BMP_temperature;BMP_pressure;BME280_temperature;BME280_humidity;BME280_pressure;Samples;Min_cycle;Max_cycle;Signal;HPM_P1;HPM_P2
2021/06/11 00:00:00;;;;;;;0.20;0.20;;;;;;;18.76;51.56;98312.75;128918;1096;114919;-82
2021/06/11 00:03:28;;;;;;;0.30;0.30;;;;;;;18.73;51.78;98303.34;128923;1096;115822;-82
2021/06/11 00:06:59;;;;;;;0.30;0.30;;;;;;;18.70;51.58;98303.25;128893;1096;115643;-82
2021/06/11 00:17:28;;;;;;;0.25;0.25;;;;;;;18.56;51.70;98290.97;128853;1099;115308;-82
2021/06/11 00:20:57;;;;;;;0.20;0.20;;;;;;;18.54;51.78;98295.98;129220;1096;114941;-82
2021/06/11 00:24:24;;;;;;;0.30;0.30;;;;;;;18.52;52.08;98301.02;129552;1095;115692;-81
2021/06/11 00:27:50;;;;;;;0.20;0.20;;;;;;;18.49;52.48;98307.20;128683;1096;238472;-82
2021/06/11 00:31:17;;;;;;;0.20;0.20;;;;;;;18.49;52.07;98312.65;128731;1099;115151;-82
2021/06/11 00:41:32;;;;;;;0.20;0.20;;;;;;;18.44;52.75;98323.87;128764;1096;114961;-82
2021/06/11 00:45:07;;;;;;;0.30;0.30;;;;;;;18.40;53.01;98314.84;129281;1095;114890;-81
2021/06/11 00:48:33;;;;;;;0.20;0.20;;;;;;;18.35;53.25;98321.38;128726;1095;115396;-81
2021/06/11 00:55:28;;;;;;;0.20;0.20;;;;;;;18.27;53.59;98324.31;128812;1096;115529;-82
2021/06/11 00:58:56;;;;;;;0.20;0.20;;;;;;;18.22;54.04;98333.58;129010;1096;114651;-82
2021/06/11 01:02:23;;;;;;;0.20;0.20;;;;;;;18.17;53.69;98331.16;128968;1095;115527;-82
2021/06/11 01:05:50;;;;;;;0.20;0.20;;;;;;;18.12;54.68;98326.00;129788;1096;22637;-82
2021/06/11 01:09:17;;;;;;;0.20;0.20;;;;;;;18.06;54.58;98314.59;129821;1096;22540;-83
2021/06/11 01:12:45;;;;;;;0.25;0.25;;;;;;;18.01;54.81;98312.16;128970;1096;115571;-82
2021/06/11 01:16:21;;;;;;;;;;;;;;;;;;;;;
2021/06/11 01:19:38;;;;;;;0.20;0.20;;;;;;;17.88;55.17;98313.44;128548;1096;115573;-81
2021/06/11 01:23:04;;;;;;;0.20;0.20;;;;;;;17.78;55.12;98301.20;129014;1100;115329;-81
2021/06/11 01:26:32;;;;;;;0.20;0.20;;;;;;;17.72;54.83;98299.08;129049;1100;115090;-81
2021/06/11 01:30:05;;;;;;;0.20;0.20;;;;;;;17.63;55.33;98300.08;129127;1096;114515;-82
2021/06/11 01:33:19;;;;;;;0.20;0.20;;;;;;;17.57;55.50;98296.08;128981;1096;116056;-81
2021/06/11 01:36:40;;;;;;;0.20;0.20;;;;;;;17.52;55.78;98285.45;129008;1096;115684;-82
2021/06/11 01:43:22;;;;;;;0.20;0.20;;;;;;;17.43;55.35;98293.05;129055;1096;114932;-82
2021/06/11 01:46:55;;;;;;;0.38;0.38;;;;;;;17.41;55.13;98293.41;129117;1097;115459;-82
2021/06/11 01:53:53;;;;;;;0.30;0.30;;;;;;;17.38;54.83;98299.56;128853;1097;115306;-82
2021/06/11 01:57:20;;;;;;;0.20;0.20;;;;;;;17.37;54.75;98303.44;129929;1096;22572;-81
2021/06/11 02:00:47;;;;;;;0.28;0.28;;;;;;;17.37;54.67;98297.18;129861;1096;22760;-80
2021/06/11 02:04:15;;;;;;;0.30;0.30;;;;;;;17.35;54.88;98299.48;129042;1097;115184;-80
2021/06/11 02:07:44;;;;;;;0.20;0.20;;;;;;;17.33;54.68;98296.31;129051;1095;115252;-80
2021/06/11 02:11:18;;;;;;;0.20;0.20;;;;;;;17.31;54.93;98299.41;129038;1096;115622;-80
2021/06/11 02:14:44;;;;;;;0.20;0.20;;;;;;;17.28;55.03;98291.16;128757;1095;115329;-81
2021/06/11 02:21:51;;;;;;;0.20;0.20;;;;;;;17.21;55.15;98301.88;128764;1097;115970;-81
2021/06/11 02:25:20;;;;;;;0.30;0.30;;;;;;;17.15;55.39;98302.16;128762;1097;115859;-82
2021/06/11 02:28:47;;;;;;;0.30;0.30;;;;;;;17.12;55.70;98304.80;129008;1096;115581;-82
2021/06/11 02:32:13;;;;;;;0.20;0.20;;;;;;;17.07;55.53;98311.31;128993;1095;114982;-82
2021/06/11 02:46:05;;;;;;;0.20;0.20;;;;;;;16.81;57.39;98319.22;128785;1096;115269;-79
2021/06/11 02:49:35;;;;;;;0.20;0.20;;;;;;;16.72;57.11;98322.09;128710;1097;115216;-81
2021/06/11 02:59:58;;;;;;;0.30;0.30;;;;;;;16.74;58.74;98332.63;129182;1096;114382;-81
2021/06/11 03:03:28;;;;;;;0.20;0.20;;;;;;;16.79;58.84;98337.83;129437;1096;115304;-81
2021/06/11 03:10:29;;;;;;;0.20;0.20;;;;;;;16.82;58.36;98348.80;128710;1096;116213;-80
2021/06/11 03:13:55;;;;;;;0.20;0.20;;;;;;;16.82;58.42;98347.98;129013;1096;115227;-81
2021/06/11 03:17:21;;;;;;;0.20;0.20;;;;;;;16.80;58.13;98340.19;129013;1096;115003;-80
2021/06/11 03:27:52;;;;;;;0.20;0.20;;;;;;;16.66;58.03;98332.45;128669;1096;115413;-81
2021/06/11 03:34:46;;;;;;;0.10;0.10;;;;;;;16.60;57.96;98346.64;128693;1096;115333;-79
2021/06/11 03:41:44;;;;;;;0.28;0.28;;;;;;;16.55;58.66;98344.98;128973;1096;115146;-82
2021/06/11 03:45:13;;;;;;;0.25;0.25;;;;;;;16.56;58.93;98340.33;129592;1096;22537;-81
2021/06/11 03:48:40;;;;;;;0.28;0.28;;;;;;;16.57;58.58;98339.97;128762;1096;115376;-82
2021/06/11 03:52:06;;;;;;;0.20;0.20;;;;;;;16.60;58.83;98338.48;128740;1095;115707;-81
2021/06/11 03:55:34;;;;;;;0.20;0.20;;;;;;;16.63;59.40;98335.08;128975;1096;114986;-81
2021/06/11 03:59:03;;;;;;;0.20;0.20;;;;;;;16.68;59.29;98337.53;129030;1096;115298;-81
2021/06/11 04:02:31;;;;;;;0.20;0.20;;;;;;;16.75;59.27;98329.58;129009;1096;115120;-81
2021/06/11 04:05:59;;;;;;;0.23;0.23;;;;;;;16.85;59.92;98331.75;129298;1095;114848;-81
2021/06/11 04:09:27;;;;;;;0.23;0.23;;;;;;;17.01;60.92;98339.13;128984;1096;115813;-81
2021/06/11 04:13:02;;;;;;;0.20;0.20;;;;;;;17.17;61.23;98339.89;128787;1096;115431;-80
2021/06/11 04:16:29;;;;;;;0.20;0.20;;;;;;;17.34;60.39;98338.73;128997;1096;114918;-80
2021/06/11 04:19:56;;;;;;;;;;;;;;;;;;;;;
2021/06/11 04:23:29;;;;;;;0.25;0.25;;;;;;;17.62;59.77;98338.57;129073;1096;115491;-81
2021/06/11 04:30:25;;;;;;;0.20;0.20;;;;;;;17.81;59.50;98329.66;129374;1096;115504;-80
2021/06/11 04:37:28;;;;;;;0.30;0.30;;;;;;;17.95;60.08;98329.94;129056;1096;115121;-81
2021/06/11 04:40:55;;;;;;;0.30;0.30;;;;;;;18.00;59.58;98328.85;129095;1094;115117;-81
2021/06/11 04:47:52;;;;;;;0.30;0.30;;;;;;;18.08;60.15;98331.38;128993;1095;115353;-82
2021/06/11 04:51:25;;;;;;;0.20;0.20;;;;;;;18.12;60.13;98340.41;129943;1095;22555;-81
2021/06/11 04:54:52;;;;;;;0.20;0.20;;;;;;;18.17;60.25;98339.33;128747;1096;115108;-81
2021/06/11 04:58:19;;;;;;;0.30;0.30;;;;;;;18.22;60.58;98330.84;129068;1096;115398;-81
2021/06/11 05:01:47;;;;;;;0.20;0.20;;;;;;;18.29;60.15;98341.89;129057;1096;115251;-82
2021/06/11 05:05:12;;;;;;;0.20;0.20;;;;;;;18.42;61.07;98344.45;129004;1096;115777;-81
2021/06/11 05:08:45;;;;;;;0.35;0.35;;;;;;;18.56;61.11;98347.44;129023;1096;115401;-82
2021/06/11 05:12:14;;;;;;;0.40;0.40;;;;;;;18.74;60.83;98339.59;129494;1095;22612;-81
2021/06/11 05:15:43;;;;;;;0.30;0.30;;;;;;;18.91;60.25;98354.70;128559;1097;115468;-80
2021/06/11 05:19:12;;;;;;;0.30;0.30;;;;;;;19.12;60.08;98353.08;128953;1096;115005;-82
2021/06/11 05:33:08;;;;;;;0.30;0.30;;;;;;;19.89;57.24;98359.27;129544;1096;22634;-81
2021/06/11 05:36:34;;;;;;;0.30;0.30;;;;;;;20.03;57.09;98356.70;129009;1096;114949;-82
2021/06/11 05:39:54;;;;;;;;;;;;;;;;;;;;;
2021/06/11 05:43:34;;;;;;;0.30;0.30;;;;;;;20.32;56.36;98357.83;128930;1096;115499;-82
2021/06/11 05:47:04;;;;;;;0.25;0.25;;;;;;;20.46;55.86;98370.07;128814;1096;116052;-82
2021/06/11 05:50:22;;;;;;;;;;;;;;;;;;;;;
2021/06/11 05:53:50;;;;;;;0.30;0.30;;;;;;;20.67;55.01;98370.33;128963;1096;115253;-82
2021/06/11 05:57:17;;;;;;;0.30;0.30;;;;;;;20.79;54.38;98369.27;129836;1096;22555;-81
2021/06/11 06:07:38;;;;;;;0.43;0.40;;;;;;;21.13;52.87;98377.36;128754;1095;115107;-82
2021/06/11 06:11:07;;;;;;;0.40;0.40;;;;;;;21.20;51.98;98375.47;129022;1096;115246;-82
2021/06/11 06:14:34;;;;;;;0.35;0.35;;;;;;;21.32;51.80;98377.12;128994;1096;115112;-82
2021/06/11 06:18:00;;;;;;;0.40;0.40;;;;;;;21.41;51.61;98376.81;129374;1096;115192;-82
2021/06/11 06:21:30;;;;;;;0.30;0.30;;;;;;;21.52;51.46;98375.71;129025;1096;115325;-82
2021/06/11 06:24:56;;;;;;;0.30;0.30;;;;;;;21.63;51.10;98375.00;129007;1096;115873;-81
2021/06/11 06:35:17;;;;;;;0.40;0.40;;;;;;;21.96;50.09;98369.28;128867;1096;115112;-82
2021/06/11 06:38:46;;;;;;;0.38;0.38;;;;;;;22.07;49.40;98377.56;128972;1096;115370;-82
2021/06/11 06:42:24;;;;;;;;;;;;;;;;;;;;;
2021/06/11 06:45:41;;;;;;;0.30;0.30;;;;;;;22.35;49.35;98373.38;128974;1096;115504;-81
2021/06/11 06:49:13;;;;;;;0.40;0.40;;;;;;;22.50;49.40;98380.48;129061;1096;115212;-82
2021/06/11 06:52:42;;;;;;;0.48;0.48;;;;;;;22.67;48.95;98385.21;128744;1096;115342;-82
2021/06/11 06:56:08;;;;;;;0.50;0.50;;;;;;;22.82;48.92;98383.28;129020;1094;115250;-81
2021/06/11 06:59:38;;;;;;;0.25;0.25;;;;;;;22.97;48.54;98386.86;128997;1096;115486;-81
2021/06/11 07:03:04;;;;;;;0.53;0.53;;;;;;;23.12;48.29;98382.95;129305;1095;114943;-81
2021/06/11 07:13:26;;;;;;;0.30;0.30;;;;;;;23.44;46.13;98382.13;129004;1096;115363;-80
2021/06/11 07:16:52;;;;;;;0.50;0.50;;;;;;;23.58;46.12;98382.13;129018;1096;114891;-80
2021/06/11 07:20:19;;;;;;;0.40;0.40;;;;;;;23.71;45.39;98383.29;129000;1096;115192;-81
2021/06/11 07:23:41;;;;;;;0.30;0.30;;;;;;;23.85;45.71;98390.70;128998;1096;115594;-81
2021/06/11 07:27:07;;;;;;;0.33;0.33;;;;;;;23.96;44.60;98385.17;129860;1096;23286;-82
2021/06/11 07:30:36;;;;;;;0.40;0.40;;;;;;;24.09;44.72;98386.33;129039;1096;114844;-81
2021/06/11 07:34:04;;;;;;;0.30;0.30;;;;;;;24.21;44.83;98394.13;128995;1095;115302;-82
2021/06/11 07:47:53;;;;;;;0.40;0.40;;;;;;;24.74;40.47;98392.29;128638;1096;115311;-82
2021/06/11 07:55:05;;;;;;;0.50;0.50;;;;;;;24.63;40.72;98397.86;128642;1096;115282;-81
2021/06/11 07:58:33;;;;;;;0.40;0.40;;;;;;;24.60;41.27;98395.93;128452;1096;114442;-81
2021/06/11 08:05:39;;;;;;;0.50;0.50;;;;;;;24.62;39.08;98396.30;128672;1096;115651;-81
2021/06/11 08:09:02;;;;;;;0.40;0.40;;;;;;;24.66;39.26;98399.03;129264;1096;115370;-81
2021/06/11 08:12:36;;;;;;;0.40;0.40;;;;;;;24.89;39.31;98388.25;128916;1095;115231;-81
2021/06/11 08:23:03;;;;;;;0.50;0.50;;;;;;;25.45;39.64;98391.75;128973;1096;115628;-81
2021/06/11 08:26:35;;;;;;;0.58;0.58;;;;;;;25.65;39.28;98402.98;128727;1096;115206;-82
2021/06/11 08:33:29;;;;;;;0.60;0.60;;;;;;;25.84;37.59;98398.09;129505;1096;22647;-81
2021/06/11 08:36:58;;;;;;;0.50;0.50;;;;;;;26.08;38.05;98399.00;129008;1096;115172;-81
2021/06/11 08:40:27;;;;;;;0.50;0.50;;;;;;;26.32;37.19;98416.45;129008;1096;115410;-81
2021/06/11 08:43:55;;;;;;;0.50;0.50;;;;;;;26.44;36.83;98402.09;128936;1096;115685;-80
2021/06/11 08:50:52;;;;;;;0.40;0.40;;;;;;;26.91;37.40;98405.78;129008;1096;115237;-81
2021/06/11 08:57:50;;;;;;;0.70;0.70;;;;;;;27.42;36.37;98405.80;128722;1096;115510;-80
2021/06/11 09:08:27;;;;;;;0.40;0.40;;;;;;;27.03;33.45;98398.12;128998;1096;115074;-82
2021/06/11 09:19:06;;;;;;;0.53;0.53;;;;;;;26.89;34.86;98404.66;128916;1096;115199;-80
2021/06/11 09:22:37;;;;;;;0.40;0.40;;;;;;;26.90;34.32;98398.70;128668;1095;115141;-82
2021/06/11 09:26:04;;;;;;;0.60;0.60;;;;;;;26.89;34.90;98405.44;129086;1095;115088;-82
2021/06/11 09:29:30;;;;;;;0.65;0.65;;;;;;;26.99;33.55;98400.93;128956;1096;115285;-81
2021/06/11 09:32:56;;;;;;;0.60;0.60;;;;;;;27.01;34.87;98400.53;129741;1096;22501;-80
2021/06/11 09:36:27;;;;;;;0.40;0.40;;;;;;;27.00;34.51;98385.13;129823;1096;22579;-80
2021/06/11 09:47:06;;;;;;;0.40;0.40;;;;;;;26.76;34.77;98395.36;128330;1096;115878;-80
2021/06/11 09:50:49;;;;;;;0.60;0.60;;;;;;;26.74;35.68;98395.02;128947;1096;116151;-81
2021/06/11 09:54:16;;;;;;;0.50;0.50;;;;;;;26.67;36.34;98380.09;129771;1096;22942;-81
2021/06/11 10:05:03;;;;;;;0.60;0.60;;;;;;;26.29;37.61;98384.95;128777;1097;115353;-80
2021/06/11 10:08:30;;;;;;;0.50;0.50;;;;;;;26.26;38.38;98393.28;128706;1096;115700;-80
2021/06/11 10:12:00;;;;;;;0.60;0.60;;;;;;;26.20;38.93;98387.42;129783;1097;22567;-81
2021/06/11 10:15:27;;;;;;;0.40;0.40;;;;;;;26.09;39.79;98384.78;129473;1097;115021;-81
2021/06/11 10:18:54;;;;;;;0.53;0.53;;;;;;;25.97;39.85;98390.84;128906;1095;121905;-81
2021/06/11 10:32:53;;;;;;;0.35;0.35;;;;;;;25.28;42.03;98384.44;128834;1096;115073;-80
2021/06/11 10:43:41;;;;;;;0.40;0.40;;;;;;;24.69;42.32;98379.73;128991;1096;115428;-81
2021/06/11 10:47:09;;;;;;;0.40;0.40;;;;;;;24.68;43.09;98371.86;129040;1096;115804;-81
2021/06/11 10:50:30;;;;;;;;;;;;;;;;;;;;;
2021/06/11 10:53:57;;;;;;;0.50;0.50;;;;;;;24.64;42.65;98384.88;129395;1095;115084;-81
2021/06/11 11:01:05;;;;;;;0.60;0.60;;;;;;;24.46;42.65;98393.25;128943;1094;115582;-82
2021/06/11 11:05:10;;;;;;;0.40;0.40;;;;;;;24.28;46.42;98409.02;129007;1096;115063;-82
2021/06/11 11:08:05;;;;;;;0.50;0.50;;;;;;;24.02;46.53;98405.59;128783;1096;115148;-83
2021/06/11 11:11:40;;;;;;;0.50;0.50;;;;;;;23.79;47.15;98397.80;128950;1096;115506;-83
2021/06/11 11:15:18;;;;;;;0.45;0.45;;;;;;;23.41;47.21;98399.41;129777;1096;22571;-83
2021/06/11 11:18:45;;;;;;;0.40;0.40;;;;;;;22.97;48.19;98384.11;128476;1096;115361;-83
2021/06/11 11:26:05;;;;;;;0.40;0.40;;;;;;;22.43;50.25;98385.95;128739;1096;115003;-82
2021/06/11 11:32:43;;;;;;;0.50;0.50;;;;;;;22.26;53.30;98398.44;128921;1096;115268;-81
2021/06/11 11:39:48;;;;;;;;;;;;;;;;;;;;;
2021/06/11 11:43:30;;;;;;;0.38;0.38;;;;;;;21.77;54.02;98375.88;128696;1096;115187;-83
2021/06/11 11:46:57;;;;;;;0.40;0.40;;;;;;;21.48;53.81;98369.42;128692;1096;115818;-81
2021/06/11 11:50:26;;;;;;;0.30;0.30;;;;;;;21.22;56.28;98355.91;128959;1095;115230;-82
2021/06/11 11:53:52;;;;;;;0.30;0.30;;;;;;;21.15;55.40;98353.92;128945;1096;114750;-82
2021/06/11 11:57:19;;;;;;;0.30;0.30;;;;;;;21.21;54.27;98349.65;129857;1096;23042;-82
2021/06/11 12:00:46;;;;;;;0.50;0.50;;;;;;;21.40;54.17;98351.38;129022;1096;115462;-81
2021/06/11 12:04:37;;;;;;;0.38;0.38;;;;;;;21.65;54.51;98340.55;129073;1096;115051;-81
2021/06/11 12:11:07;;;;;;;0.40;0.40;;;;;;;22.62;51.63;98316.98;129049;1096;115275;-81
2021/06/11 12:18:01;;;;;;;0.60;0.60;;;;;;;23.32;51.96;98309.14;129275;1095;115070;-82
2021/06/11 12:21:29;;;;;;;0.40;0.40;;;;;;;23.85;49.87;98308.20;129105;1095;115132;-81
2021/06/11 12:24:56;;;;;;;0.50;0.50;;;;;;;24.13;48.95;98303.75;128587;1096;237919;-81
2021/06/11 12:31:49;;;;;;;0.50;0.50;;;;;;;24.68;50.71;98297.52;129044;1095;115371;-81
2021/06/11 12:35:16;;;;;;;0.40;0.40;;;;;;;25.16;49.93;98302.27;129042;1095;115143;-81
2021/06/11 12:38:43;;;;;;;0.53;0.53;;;;;;;25.39;48.40;98294.16;129051;1096;115317;-81
2021/06/11 12:42:14;;;;;;;0.50;0.50;;;;;;;25.48;47.33;98290.91;129887;1096;22577;-81
2021/06/11 12:45:40;;;;;;;0.40;0.40;;;;;;;25.58;47.73;98289.99;129897;1096;22522;-81
2021/06/11 12:49:04;;;;;;;0.50;0.50;;;;;;;25.68;47.51;98285.56;128986;1096;115651;-82
2021/06/11 12:56:16;;;;;;;0.45;0.45;;;;;;;25.78;46.78;98275.61;128708;1097;115328;-82
2021/06/11 12:59:34;;;;;;;;;;;;;;;;;;;;;
2021/06/11 13:03:03;;;;;;;0.40;0.40;;;;;;;25.89;45.48;98279.02;129344;1096;115339;-81
2021/06/11 13:06:30;;;;;;;0.60;0.60;;;;;;;26.20;45.41;98271.50;129135;1096;115615;-81
2021/06/11 13:13:24;;;;;;;0.50;0.50;;;;;;;27.25;43.22;98277.73;128727;1096;115175;-82
2021/06/11 13:16:57;;;;;;;0.50;0.50;;;;;;;27.33;43.38;98270.86;128983;1095;115002;-81
2021/06/11 13:20:23;;;;;;;0.65;0.65;;;;;;;27.71;43.67;98267.75;128738;1096;115396;-80
2021/06/11 13:27:29;;;;;;;0.50;0.50;;;;;;;27.99;42.92;98265.62;129814;1095;22563;-81
2021/06/11 13:30:56;;;;;;;0.60;0.60;;;;;;;28.34;42.76;98262.05;129506;1096;22513;-80
2021/06/11 13:34:22;;;;;;;0.80;0.80;;;;;;;29.10;42.43;98263.78;128965;1096;115200;-80
2021/06/11 13:37:49;;;;;;;0.60;0.60;;;;;;;29.88;41.01;98260.84;129037;1096;115610;-79
2021/06/11 13:41:26;;;;;;;0.60;0.60;;;;;;;30.27;38.00;98264.45;129047;1096;115586;-80
2021/06/11 13:44:50;;;;;;;0.80;0.80;;;;;;;30.11;37.31;98256.97;129543;1095;23369;-80
2021/06/11 13:48:16;;;;;;;0.68;0.68;;;;;;;30.82;35.02;98250.41;129886;1096;22581;-81
2021/06/11 13:51:51;;;;;;;0.68;0.68;;;;;;;31.53;32.23;98253.48;129039;1095;115456;-81
2021/06/11 13:55:18;;;;;;;0.70;0.70;;;;;;;31.94;33.61;98254.36;128885;1096;115086;-81
2021/06/11 13:58:35;;;;;;;0.70;0.70;;;;;;;31.67;33.15;98246.59;128998;1096;114850;-80
2021/06/11 14:09:05;;;;;;;0.80;0.80;;;;;;;30.66;37.10;98252.08;129071;1096;116227;-80
2021/06/11 14:12:32;;;;;;;0.50;0.50;;;;;;;30.30;38.10;98241.31;129037;1096;115603;-79
2021/06/11 14:15:59;;;;;;;0.75;0.75;;;;;;;30.27;39.16;98239.45;128991;1095;115704;-81
2021/06/11 14:19:26;;;;;;;0.80;0.80;;;;;;;30.81;38.77;98241.27;128990;1096;115220;-80
2021/06/11 14:22:52;;;;;;;0.68;0.68;;;;;;;31.37;36.91;98239.77;128999;1095;115474;-80
2021/06/11 14:26:20;;;;;;;0.58;0.58;;;;;;;32.12;35.76;98229.39;129003;1096;115883;-82
2021/06/11 14:29:49;;;;;;;0.65;0.65;;;;;;;32.92;33.66;98225.70;128976;1096;115754;-81
2021/06/11 14:36:46;;;;;;;0.70;0.70;;;;;;;34.45;31.12;98233.95;129038;1096;115028;-81
2021/06/11 14:40:14;;;;;;;0.78;0.78;;;;;;;35.12;29.83;98227.01;129019;1096;115241;-81
2021/06/11 14:43:40;;;;;;;0.85;0.85;;;;;;;35.75;26.56;98223.31;128945;1096;115790;-81
2021/06/11 14:47:07;;;;;;;0.90;0.90;;;;;;;36.30;25.59;98212.22;128957;1096;115037;-79
2021/06/11 14:50:41;;;;;;;0.80;0.80;;;;;;;36.87;25.87;98213.77;128768;1096;115159;-80
2021/06/11 14:54:06;;;;;;;0.80;0.80;;;;;;;37.42;24.36;98207.27;129778;1095;22540;-80
2021/06/11 14:57:36;;;;;;;0.90;0.90;;;;;;;37.99;23.86;98216.96;128988;1096;115366;-80
2021/06/11 15:01:04;;;;;;;0.83;0.83;;;;;;;38.48;22.86;98215.02;128987;1096;115420;-80
2021/06/11 15:04:39;;;;;;;;;;;;;;;;;;;;;
2021/06/11 15:07:57;;;;;;;0.70;0.70;;;;;;;39.43;20.77;98218.19;128945;1095;115122;-81
2021/06/11 15:11:24;;;;;;;0.73;0.73;;;;;;;39.87;19.74;98216.70;128966;1095;115542;-81
2021/06/11 15:15:03;;;;;;;;;;;;;;;;;;;;;
2021/06/11 15:18:20;;;;;;;1.00;1.00;;;;;;;41.12;17.60;98206.66;129730;1096;22532;-79
2021/06/11 15:21:48;;;;;;;1.00;1.00;;;;;;;41.86;17.17;98202.81;128853;1096;115545;-79
2021/06/11 15:25:15;;;;;;;1.00;1.00;;;;;;;42.53;15.95;98197.78;128972;1095;115102;-81
2021/06/11 15:28:42;;;;;;;0.90;0.90;;;;;;;43.21;14.69;98203.38;128909;1096;115629;-80
2021/06/11 15:39:09;;;;;;;0.90;0.90;;;;;;;44.51;13.20;98197.83;129834;1096;22618;-80
2021/06/11 15:46:02;;;;;;;0.90;0.90;;;;;;;45.06;12.78;98188.72;128665;1096;115592;-79
2021/06/11 15:49:37;;;;;;;1.00;1.00;;;;;;;45.16;13.00;98180.47;128643;1096;115297;-79
2021/06/11 15:53:02;;;;;;;0.93;0.93;;;;;;;44.35;13.27;98184.73;128674;1096;114981;-80
2021/06/11 15:56:32;;;;;;;1.00;1.00;;;;;;;43.61;14.39;98184.47;128983;1096;116064;-79
2021/06/11 16:03:35;;;;;;;0.80;0.80;;;;;;;42.06;14.66;98178.20;128710;1095;115535;-79
2021/06/11 16:07:02;;;;;;;0.85;0.85;;;;;;;40.77;17.15;98177.02;128901;1096;115790;-79
2021/06/11 16:10:29;;;;;;;0.80;0.80;;;;;;;39.37;17.85;98177.20;128917;1096;115453;-79
2021/06/11 16:13:57;;;;;;;0.63;0.63;;;;;;;38.13;20.07;98167.48;129002;1095;115908;-79
2021/06/11 16:17:26;;;;;;;0.78;0.78;;;;;;;37.08;21.62;98166.82;129013;1095;115476;-78
2021/06/11 16:20:53;;;;;;;0.90;0.90;;;;;;;36.02;23.02;98164.17;128923;1096;115641;-79
2021/06/11 16:24:26;;;;;;;1.00;1.00;;;;;;;34.99;24.68;98167.74;129575;1096;22637;-79
2021/06/11 16:38:14;;;;;;;0.80;0.80;;;;;;;31.82;29.50;98166.88;128954;1096;115382;-80
2021/06/11 16:41:32;;;;;;;0.70;0.70;;;;;;;31.18;31.17;98172.83;128908;1096;114939;-80
2021/06/11 16:45:01;;;;;;;0.80;0.80;;;;;;;30.61;32.50;98180.36;129251;1096;114980;-80
2021/06/11 16:48:31;;;;;;;0.73;0.73;;;;;;;30.01;33.83;98175.55;128878;1096;115604;-77
2021/06/11 16:51:57;;;;;;;0.65;0.65;;;;;;;29.49;34.93;98187.03;128558;1096;115655;-79
2021/06/11 16:55:26;;;;;;;0.50;0.50;;;;;;;29.00;36.00;98187.98;129016;1096;115681;-80
2021/06/11 17:02:19;;;;;;;0.70;0.70;;;;;;;28.11;38.57;98188.21;129048;1096;115468;-80
2021/06/11 17:05:46;;;;;;;0.35;0.35;;;;;;;27.73;38.31;98190.63;128704;1096;115219;-81
2021/06/11 17:09:13;;;;;;;0.50;0.50;;;;;;;27.37;39.30;98193.38;129745;1096;22564;-81
2021/06/11 17:12:50;;;;;;;0.60;0.60;;;;;;;27.06;39.72;98198.30;128949;1096;115570;-81
2021/06/11 17:16:17;;;;;;;0.48;0.48;;;;;;;26.73;41.16;98200.88;128781;1096;115713;-82
2021/06/11 17:19:50;;;;;;;0.50;0.50;;;;;;;26.47;41.38;98207.23;128882;1096;115089;-81
2021/06/11 17:30:42;;;;;;;0.50;0.50;;;;;;;25.77;42.97;98207.83;129775;1096;22584;-81
2021/06/11 17:33:58;;;;;;;0.50;0.50;;;;;;;25.54;43.13;98216.79;128772;1096;115162;-80
2021/06/11 17:37:25;;;;;;;0.40;0.40;;;;;;;25.34;43.36;98211.91;129009;1096;115650;-82
2021/06/11 17:40:52;;;;;;;0.40;0.40;;;;;;;25.14;44.56;98220.00;128768;1096;116246;-82
2021/06/11 17:47:30;;;;;;;;;;;;;;;24.77;44.90;98219.98;129716;1096;22563;-82
2021/06/11 17:50:39;;;;;;;;;;;;;;;24.62;46.09;98228.36;129862;1096;21312;-83
2021/06/11 17:57:05;;;;;;;;;;;;;;;24.36;47.36;98221.45;129457;1096;21683;-80
2021/06/11 18:00:11;;;;;;;;;;;;;;;24.24;45.80;98208.95;128784;1094;209547;-80
2021/06/11 18:03:19;;;;;;;;;;;;;;;24.14;45.95;98220.06;129068;1096;102061;-80
2021/06/11 18:06:32;;;;;;;;;;;;;;;24.03;46.27;98220.13;129111;1095;101549;-79
2021/06/11 18:09:39;;;;;;;;;;;;;;;23.90;45.81;98219.03;129133;1096;101466;-79
2021/06/11 18:12:57;;;;;;;;;;;;;;;23.77;46.20;98218.69;129053;1096;102006;-80
2021/06/11 18:19:05;;;;;;;;;;;;;;;23.52;46.71;98222.31;129104;1096;101435;-80
2021/06/11 18:22:19;;;;;;;;;;;;;;;23.38;47.46;98227.86;129148;1096;101263;-80
2021/06/11 18:25:26;;;;;;;;;;;;;;;23.23;47.03;98226.36;129152;1095;101496;-81
2021/06/11 18:28:33;;;;;;;;;;;;;;;23.08;46.89;98228.36;129110;1096;101634;-81
2021/06/11 18:31:54;;;;;;;;;;;;;;;22.95;46.73;98235.43;129172;1096;101385;-82
2021/06/11 18:35:02;;;;;;;;;;;;;;;22.78;47.63;98237.78;127904;1099;101647;-81
2021/06/11 18:38:08;;;;;;;;;;;;;;;22.64;47.15;98248.00;127950;1099;101316;-80
2021/06/11 18:41:16;;;;;;;;;;;;;;;22.49;48.09;98234.27;128307;1100;101821;-82
2021/06/11 18:47:28;;;;;;;;;;;;;;;22.22;48.07;98238.56;128344;1100;101537;-81
2021/06/11 18:50:35;;;;;;;;;;;;;;;22.08;48.27;98241.24;129104;1095;101325;-82
2021/06/11 19:00:06;;;;;;;;;;;;;;;21.62;48.08;98259.14;129461;1096;21277;-82
2021/06/11 19:03:14;;;;;;;;;;;;;;;21.50;49.28;98257.52;129066;1096;101705;-81
2021/06/11 19:06:21;;;;;;;;;;;;;;;21.39;49.91;98264.12;129017;1095;101687;-80
2021/06/11 19:09:27;;;;;;;;;;;;;;;21.28;50.41;98275.76;129061;1096;101464;-80
2021/06/11 19:12:34;;;;;;;;;;;;;;;21.17;50.72;98268.65;129118;1096;101457;-81
2021/06/11 19:19:08;;;;;;;;;;;;;;;21.00;50.88;98270.11;128957;1096;101452;-82
2021/06/11 19:22:15;;;;;;;;;;;;;;;20.92;50.57;98266.54;129021;1096;101808;-82
2021/06/11 19:25:34;;;;;;;;;;;;;;;20.86;51.65;98273.52;129042;1094;101562;-80
2021/06/11 19:28:40;;;;;;;;;;;;;;;20.78;51.08;98271.90;129031;1096;101752;-82
2021/06/11 19:34:53;;;;;;;;;;;;;;;;;;;;;
2021/06/11 19:38:14;;;;;;;;;;;;;;;20.64;54.29;98289.00;129073;1096;101473;-82
2021/06/11 19:41:14;;;;;;;;;;;;;;;20.57;53.40;98289.72;128710;1096;101877;-81
2021/06/11 19:44:23;;;;;;;;;;;;;;;20.54;53.99;98295.94;129044;1096;101721;-83
2021/06/11 19:47:28;;;;;;;;;;;;;;;20.50;53.21;98295.12;129105;1096;100745;-82
2021/06/11 19:50:39;;;;;;;;;;;;;;;20.48;53.52;98300.16;128994;1096;101097;-83
2021/06/11 19:53:47;;;;;;;;;;;;;;;20.44;54.03;98302.08;129759;1096;21238;-82
2021/06/11 19:56:52;;;;;;;;;;;;;;;20.42;53.83;98300.88;129776;1096;21684;-83
2021/06/11 19:59:58;;;;;;;;;;;;;;;20.37;54.80;98299.27;129769;1096;21251;-83
2021/06/11 20:03:08;;;;;;;;;;;;;;;20.33;55.04;98301.19;129786;1096;21795;-82
2021/06/11 20:06:14;;;;;;;;;;;;;;;20.29;55.40;98300.37;129026;1096;101745;-83
2021/06/11 20:09:32;;;;;;;;;;;;;;;20.23;56.66;98297.17;129051;1096;101491;-82
2021/06/11 20:12:32;;;;;;;;;;;;;;;20.20;55.61;98297.13;129009;1096;101909;-81
2021/06/11 20:18:59;;;;;;;;;;;;;;;20.13;55.18;98292.39;128704;1096;101716;-81
2021/06/11 20:22:05;;;;;;;;;;;;;;;20.08;56.33;98289.97;129094;1096;102499;-81
2021/06/11 20:25:11;;;;;;;;;;;;;;;20.03;56.59;98282.91;129175;1096;101701;-81
2021/06/11 20:28:19;;;;;;;;;;;;;;;20.00;55.03;98291.88;129150;1096;101836;-82
2021/06/11 20:31:25;;;;;;;;;;;;;;;19.97;54.82;98289.88;129193;1096;101421;-81
2021/06/11 20:34:32;;;;;;;;;;;;;;;19.94;55.67;98284.38;129191;1096;101308;-83
2021/06/11 20:37:40;;;;;;;;;;;;;;;19.89;55.83;98292.91;129180;1096;101612;-82
2021/06/11 20:40:47;;;;;;;;;;;;;;;19.83;55.75;98286.97;129146;1095;101614;-82
2021/06/11 20:43:53;;;;;;;;;;;;;;;19.79;55.96;98281.46;129112;1096;101209;-82
2021/06/11 20:49:50;;;;;;;;;;;;;;;19.75;56.03;98285.31;128997;1096;101165;-81
2021/06/11 20:52:56;;;;;;;;;;;;;;;19.70;57.00;98280.19;129188;1096;101723;-80
2021/06/11 20:56:02;;;;;;;;;;;;;;;19.66;56.27;98293.02;129187;1096;101278;-81
2021/06/11 20:59:08;;;;;;;;;;;;;;;19.64;56.81;98292.59;129178;1096;101300;-79
2021/06/11 21:02:14;;;;;;;;;;;;;;;19.60;56.22;98301.48;129191;1096;101328;-82
2021/06/11 21:05:21;;;;;;;;;;;;;;;19.58;56.36;98297.57;129200;1095;101328;-81
2021/06/11 21:08:41;;;;;;;;;;;;;;;19.54;57.53;98297.52;129164;1096;101543;-81
2021/06/11 21:11:39;;;;;;;;;;;;;;;19.52;57.04;98299.04;129051;1096;101794;-81
2021/06/11 21:14:46;;;;;;;;;;;;;;;19.49;56.82;98297.86;129452;1096;101514;-81